createdAt,value
2024-05-09T00:00:29.640Z,1.73
2024-05-09T00:01:44.842Z,2.00
2024-05-09T00:02:57.075Z,1.87
2024-05-09T00:04:09.513Z,1.97
2024-05-09T00:05:22.035Z,1.80
2024-05-09T00:06:34.228Z,2.20
2024-05-09T00:07:46.405Z,2.13
2024-05-09T00:08:58.597Z,1.73
2024-05-09T00:10:18.268Z,2.77
2024-05-09T00:11:37.744Z,1.73
2024-05-09T00:12:50.023Z,2.63
2024-05-09T00:14:02.655Z,2.30
2024-05-09T00:15:14.944Z,1.57
2024-05-09T00:16:27.079Z,1.90
2024-05-09T00:17:39.470Z,1.93
2024-05-09T00:18:51.987Z,1.70
2024-05-09T00:20:10.931Z,2.00
2024-05-09T00:21:26.139Z,1.37
2024-05-09T00:22:38.291Z,1.73
2024-05-09T00:23:50.445Z,1.67
2024-05-09T00:25:02.695Z,1.70
2024-05-09T00:26:18.487Z,2.07
2024-05-09T00:27:30.706Z,1.67
2024-05-09T00:28:42.928Z,2.23
2024-05-09T00:29:55.106Z,2.13
2024-05-09T00:31:07.266Z,1.83
2024-05-09T00:32:19.603Z,2.53
2024-05-09T00:33:32.068Z,2.03
2024-05-09T00:34:44.418Z,2.10
2024-05-09T00:35:56.606Z,2.40
2024-05-09T00:37:08.793Z,2.10
2024-05-09T00:38:21.149Z,1.73
2024-05-09T00:39:33.402Z,2.00
2024-05-09T00:40:45.639Z,2.03
2024-05-09T00:41:57.833Z,2.17
2024-05-09T00:43:14.583Z,1.20
2024-05-09T00:44:27.604Z,2.00
2024-05-09T00:45:39.902Z,1.83
2024-05-09T00:46:55.402Z,1.80
2024-05-09T00:48:09.531Z,2.03
2024-05-09T00:49:24.124Z,2.13
2024-05-09T00:50:41.101Z,2.87
2024-05-09T00:51:56.332Z,1.90
2024-05-09T00:53:11.805Z,1.73
2024-05-09T00:54:24.765Z,2.17
2024-05-09T00:55:38.115Z,1.93
2024-05-09T00:56:52.465Z,1.43
2024-05-09T00:58:05.591Z,1.90
2024-05-09T00:59:17.933Z,2.10
2024-05-09T01:00:35.904Z,2.20
2024-05-09T01:01:52.074Z,2.27
2024-05-09T01:03:04.697Z,2.80
2024-05-09T01:04:17.481Z,2.83
2024-05-09T01:05:30.126Z,2.10
2024-05-09T01:06:42.496Z,2.30
2024-05-09T01:07:54.818Z,2.20
2024-05-09T01:09:07.093Z,2.20
2024-05-09T01:10:27.577Z,1.80
2024-05-09T01:11:44.469Z,2.03
2024-05-09T01:12:56.743Z,1.97
2024-05-09T01:14:08.929Z,2.17
2024-05-09T01:15:21.132Z,1.90
2024-05-09T01:16:35.608Z,2.10
2024-05-09T01:17:48.108Z,1.77
2024-05-09T01:19:03.480Z,2.20
2024-05-09T01:20:20.297Z,2.17
2024-05-09T01:21:41.759Z,1.60
2024-05-09T01:22:54.874Z,1.97
2024-05-09T01:24:07.153Z,1.97
2024-05-09T01:25:19.291Z,2.30
2024-05-09T01:26:32.536Z,2.27
2024-05-09T01:27:45.063Z,2.47
2024-05-09T01:28:57.268Z,1.77
2024-05-09T01:30:14.925Z,2.10
2024-05-09T01:31:32.987Z,1.70
2024-05-09T01:32:45.338Z,2.30
2024-05-09T01:33:57.744Z,1.87
2024-05-09T01:35:10.078Z,1.80
2024-05-09T01:36:22.259Z,1.93
2024-05-09T01:37:34.429Z,2.17
2024-05-09T01:38:46.693Z,2.00
2024-05-09T01:39:58.954Z,1.73
2024-05-09T01:41:11.231Z,2.10
2024-05-09T01:42:23.493Z,1.90
2024-05-09T01:43:35.654Z,1.93
2024-05-09T01:44:47.785Z,2.13
2024-05-09T01:45:59.986Z,2.23
2024-05-09T01:47:12.219Z,2.50
2024-05-09T01:48:24.659Z,2.40
2024-05-09T01:49:37.796Z,2.20
2024-05-09T01:50:50.065Z,2.10
2024-05-09T01:52:02.257Z,2.23
2024-05-09T01:53:15.433Z,1.93
2024-05-09T01:54:27.940Z,2.33
2024-05-09T01:55:40.667Z,6.17
2024-05-09T01:56:52.918Z,6.30
2024-05-09T01:58:05.292Z,6.57
2024-05-09T01:59:17.525Z,4.50
2024-05-09T02:00:38.631Z,4.70
2024-05-09T02:01:56.981Z,2.60
2024-05-09T02:03:14.689Z,2.40
2024-05-09T02:04:30.616Z,3.23
2024-05-09T02:05:43.780Z,2.67
2024-05-09T02:06:56.090Z,2.20
2024-05-09T02:08:12.877Z,2.60
2024-05-09T02:09:25.888Z,2.13
2024-05-09T02:10:38.090Z,1.90
2024-05-09T02:11:50.671Z,2.00
2024-05-09T02:13:02.890Z,2.43
2024-05-09T02:14:15.112Z,1.63
2024-05-09T02:15:27.364Z,2.03
2024-05-09T02:16:39.692Z,2.20
2024-05-09T02:17:54.593Z,2.27
2024-05-09T02:19:07.026Z,2.13
2024-05-09T02:20:30.139Z,2.13
2024-05-09T02:21:47.921Z,1.70
2024-05-09T02:23:03.634Z,1.87
2024-05-09T02:24:16.121Z,2.50
2024-05-09T02:25:28.294Z,2.53
2024-05-09T02:26:40.509Z,3.37
2024-05-09T02:27:52.684Z,3.10
2024-05-09T02:29:04.926Z,4.20
2024-05-09T02:30:25.843Z,3.17
2024-05-09T02:31:47.679Z,5.63
2024-05-09T02:33:00.430Z,5.00
2024-05-09T02:34:12.834Z,4.00
2024-05-09T02:35:25.187Z,4.07
2024-05-09T02:36:37.394Z,2.80
2024-05-09T02:37:49.576Z,2.83
2024-05-09T02:39:01.917Z,2.60
2024-05-09T02:40:15.150Z,2.60
2024-05-09T02:41:33.648Z,3.13
2024-05-09T02:42:45.988Z,2.97
2024-05-09T02:43:58.171Z,3.17
2024-05-09T02:45:10.439Z,2.10
2024-05-09T02:46:22.619Z,2.90
2024-05-09T02:47:34.911Z,2.83
2024-05-09T02:48:47.333Z,3.33
2024-05-09T02:49:59.659Z,2.93
2024-05-09T02:51:11.952Z,2.80
2024-05-09T02:52:24.192Z,2.90
2024-05-09T02:53:36.431Z,2.80
2024-05-09T02:54:48.663Z,3.37
2024-05-09T02:56:00.940Z,3.57
2024-05-09T02:57:13.232Z,2.80
2024-05-09T02:58:25.419Z,3.67
2024-05-09T02:59:37.648Z,3.70
2024-05-09T03:00:49.979Z,3.30
2024-05-09T03:02:02.317Z,3.90
2024-05-09T03:03:15.770Z,3.27
2024-05-09T03:04:28.302Z,3.77
2024-05-09T03:05:40.868Z,3.20
2024-05-09T03:06:53.311Z,3.53
2024-05-09T03:08:05.947Z,3.97
2024-05-09T03:09:18.570Z,2.67
2024-05-09T03:10:35.943Z,3.00
2024-05-09T03:11:50.274Z,3.27
2024-05-09T03:13:15.279Z,3.80
2024-05-09T03:14:29.171Z,2.73
2024-05-09T03:15:41.376Z,2.93
2024-05-09T03:16:53.558Z,2.93
2024-05-09T03:18:06.907Z,4.03
2024-05-09T03:19:19.568Z,3.37
2024-05-09T03:20:34.911Z,3.90
2024-05-09T03:21:48.308Z,3.30
2024-05-09T03:23:00.508Z,3.83
2024-05-09T03:24:12.680Z,3.80
2024-05-09T03:25:25.099Z,3.67
2024-05-09T03:26:37.282Z,3.43
2024-05-09T03:27:49.514Z,3.17
2024-05-09T03:29:01.726Z,3.47
2024-05-09T03:30:26.018Z,4.07
2024-05-09T03:31:46.242Z,4.30
2024-05-09T03:32:58.597Z,4.10
2024-05-09T03:34:11.802Z,3.50
2024-05-09T03:35:24.182Z,3.03
2024-05-09T03:36:36.492Z,3.90
2024-05-09T03:37:48.663Z,3.83
2024-05-09T03:39:00.877Z,4.13
2024-05-09T03:40:20.704Z,3.83
2024-05-09T03:41:36.166Z,3.70
2024-05-09T03:42:48.392Z,3.40
2024-05-09T03:44:00.624Z,4.70
2024-05-09T03:45:12.880Z,3.40
2024-05-09T03:46:25.133Z,3.90
2024-05-09T03:47:38.458Z,3.10
2024-05-09T03:48:50.925Z,3.57
2024-05-09T03:50:05.636Z,3.80
2024-05-09T03:51:17.928Z,4.03
2024-05-09T03:52:30.066Z,4.03
2024-05-09T03:53:42.307Z,4.23
2024-05-09T03:54:54.669Z,4.10
2024-05-09T03:56:08.712Z,2.97
2024-05-09T03:57:20.901Z,3.60
2024-05-09T03:58:33.129Z,3.40
2024-05-09T03:59:45.304Z,3.93
2024-05-09T04:00:57.525Z,4.27
2024-05-09T04:02:09.880Z,3.23
2024-05-09T04:03:22.317Z,3.90
2024-05-09T04:04:34.845Z,3.60
2024-05-09T04:05:47.183Z,4.30
2024-05-09T04:06:59.361Z,4.37
2024-05-09T04:08:11.776Z,3.97
2024-05-09T04:09:24.049Z,4.77
2024-05-09T04:10:36.261Z,4.13
2024-05-09T04:11:48.536Z,4.10
2024-05-09T04:13:00.844Z,3.50
2024-05-09T04:14:13.063Z,3.73
2024-05-09T04:15:25.272Z,3.07
2024-05-09T04:16:37.469Z,3.60
2024-05-09T04:17:51.760Z,3.87
2024-05-09T04:19:04.111Z,3.97
2024-05-09T04:20:28.671Z,3.40
2024-05-09T04:21:48.508Z,4.20
2024-05-09T04:23:00.745Z,3.33
2024-05-09T04:24:12.915Z,4.10
2024-05-09T04:25:25.090Z,3.77
2024-05-09T04:26:37.279Z,3.97
2024-05-09T04:27:49.499Z,5.07
2024-05-09T04:29:01.820Z,3.80
2024-05-09T04:30:21.636Z,4.20
2024-05-09T04:31:42.503Z,3.30
2024-05-09T04:32:54.905Z,5.03
2024-05-09T04:34:07.342Z,4.03
2024-05-09T04:35:22.413Z,3.67
2024-05-09T04:36:34.625Z,3.37
2024-05-09T04:37:46.798Z,3.77
2024-05-09T04:38:58.970Z,5.53
2024-05-09T04:40:20.935Z,4.80
2024-05-09T04:41:40.400Z,5.47
2024-05-09T04:42:52.644Z,3.70
2024-05-09T04:44:05.065Z,3.97
2024-05-09T04:45:17.287Z,3.87
2024-05-09T04:46:29.451Z,3.87
2024-05-09T04:47:41.807Z,4.77
2024-05-09T04:48:54.297Z,4.27
2024-05-09T04:50:11.418Z,3.70
2024-05-09T04:51:23.913Z,4.10
2024-05-09T04:52:36.094Z,4.33
2024-05-09T04:53:48.300Z,4.27
2024-05-09T04:55:00.560Z,3.37
2024-05-09T04:56:12.783Z,3.87
2024-05-09T04:57:24.957Z,3.17
2024-05-09T04:58:38.052Z,3.80
2024-05-09T04:59:50.697Z,3.67
2024-05-09T05:01:02.884Z,3.73
2024-05-09T05:02:15.158Z,3.97
2024-05-09T05:03:27.522Z,4.00
2024-05-09T05:04:39.915Z,3.60
2024-05-09T05:05:52.164Z,3.10
2024-05-09T05:07:04.426Z,3.30
2024-05-09T05:08:19.210Z,3.73
2024-05-09T05:09:31.895Z,3.90
2024-05-09T05:10:44.660Z,4.20
2024-05-09T05:11:56.985Z,4.33
2024-05-09T05:13:17.144Z,3.50
2024-05-09T05:14:30.389Z,4.27
2024-05-09T05:15:44.252Z,3.57
2024-05-09T05:16:56.463Z,3.57
2024-05-09T05:18:08.819Z,3.60
2024-05-09T05:19:21.096Z,2.97
2024-05-09T05:20:34.235Z,3.33
2024-05-09T05:21:46.646Z,2.93
2024-05-09T05:22:58.857Z,3.70
2024-05-09T05:24:11.005Z,3.33
2024-05-09T05:25:23.145Z,3.40
2024-05-09T05:26:35.452Z,3.10
2024-05-09T05:27:47.700Z,3.47
2024-05-09T05:29:00.012Z,3.33
2024-05-09T05:30:20.995Z,3.63
2024-05-09T05:31:37.543Z,3.13
2024-05-09T05:32:49.994Z,2.77
2024-05-09T05:34:02.491Z,3.40
2024-05-09T05:35:14.876Z,3.20
2024-05-09T05:36:27.123Z,3.83
2024-05-09T05:37:39.307Z,2.97
2024-05-09T05:38:51.773Z,3.63
2024-05-09T05:40:04.350Z,3.60
2024-05-09T05:41:17.833Z,3.63
2024-05-09T05:42:29.999Z,3.97
2024-05-09T05:43:42.219Z,3.53
2024-05-09T05:44:54.410Z,3.67
2024-05-09T05:46:06.566Z,3.33
2024-05-09T05:47:18.754Z,3.70
2024-05-09T05:48:31.096Z,3.20
2024-05-09T05:49:43.309Z,3.73
2024-05-09T05:50:55.509Z,3.73
2024-05-09T05:52:07.767Z,3.43
2024-05-09T05:53:20.082Z,3.40
2024-05-09T05:54:32.346Z,4.30
2024-05-09T05:55:44.646Z,3.50
2024-05-09T05:56:58.013Z,3.53
2024-05-09T05:58:10.944Z,3.73
2024-05-09T05:59:24.160Z,4.03
2024-05-09T06:00:39.201Z,3.97
2024-05-09T06:01:52.781Z,4.00
2024-05-09T06:03:06.124Z,3.80
2024-05-09T06:04:18.588Z,3.67
2024-05-09T06:05:30.953Z,3.47
2024-05-09T06:06:43.152Z,4.30
2024-05-09T06:07:55.345Z,3.33
2024-05-09T06:09:07.579Z,4.20
2024-05-09T06:10:25.440Z,3.80
2024-05-09T06:11:42.871Z,4.30
2024-05-09T06:12:55.115Z,4.30
2024-05-09T06:14:07.404Z,4.87
2024-05-09T06:15:19.601Z,3.80
2024-05-09T06:16:31.935Z,3.77
2024-05-09T06:17:44.617Z,4.00
2024-05-09T06:18:57.226Z,2.97
2024-05-09T06:20:16.742Z,3.70
2024-05-09T06:21:35.806Z,4.33
2024-05-09T06:22:48.159Z,3.80
2024-05-09T06:24:02.524Z,3.87
2024-05-09T06:25:15.991Z,3.50
2024-05-09T06:26:28.664Z,3.60
2024-05-09T06:27:40.904Z,3.87
2024-05-09T06:28:53.105Z,3.10
2024-05-09T06:30:08.195Z,3.87
2024-05-09T06:31:22.023Z,3.70
2024-05-09T06:32:34.310Z,3.97
2024-05-09T06:33:46.691Z,3.73
2024-05-09T06:34:59.242Z,3.60
2024-05-09T06:36:11.475Z,3.33
2024-05-09T06:37:23.643Z,3.80
2024-05-09T06:38:38.123Z,3.53
2024-05-09T06:39:50.462Z,5.17
2024-05-09T06:41:02.674Z,3.60
2024-05-09T06:42:15.048Z,4.23
2024-05-09T06:43:27.242Z,3.07
2024-05-09T06:44:39.528Z,3.43
2024-05-09T06:45:53.124Z,3.57
2024-05-09T06:47:05.526Z,3.10
2024-05-09T06:48:22.510Z,3.90
2024-05-09T06:49:35.241Z,2.70
2024-05-09T06:50:48.335Z,3.23
2024-05-09T06:52:00.610Z,3.73
2024-05-09T06:53:16.284Z,3.20
2024-05-09T06:54:28.557Z,3.33
2024-05-09T06:55:40.821Z,3.10
2024-05-09T06:56:53.048Z,2.70
2024-05-09T06:58:11.609Z,3.37
2024-05-09T06:59:23.826Z,2.63
2024-05-09T07:00:39.781Z,2.73
2024-05-09T07:01:53.661Z,3.20
2024-05-09T07:03:11.198Z,2.77
2024-05-09T07:04:24.491Z,2.77
2024-05-09T07:05:36.792Z,3.10
2024-05-09T07:06:48.977Z,3.07
2024-05-09T07:08:01.312Z,3.13
2024-05-09T07:09:13.501Z,2.60
2024-05-09T07:10:32.631Z,3.60
2024-05-09T07:11:47.197Z,2.90
2024-05-09T07:12:59.690Z,3.20
2024-05-09T07:14:11.961Z,2.50
2024-05-09T07:15:24.125Z,2.87
2024-05-09T07:16:36.302Z,2.97
2024-05-09T07:17:48.667Z,3.00
2024-05-09T07:19:01.182Z,3.37
2024-05-09T07:20:23.014Z,2.57
2024-05-09T07:21:40.027Z,2.70
2024-05-09T07:22:52.227Z,3.20
2024-05-09T07:24:04.715Z,2.80
2024-05-09T07:25:16.883Z,3.10
2024-05-09T07:26:29.124Z,2.87
2024-05-09T07:27:41.304Z,2.70
2024-05-09T07:28:53.505Z,2.90
2024-05-09T07:30:07.339Z,2.60
2024-05-09T07:31:19.588Z,3.47
2024-05-09T07:32:31.894Z,2.93
2024-05-09T07:33:44.246Z,3.63
2024-05-09T07:34:56.471Z,3.70
2024-05-09T07:36:08.709Z,2.73
2024-05-09T07:37:20.843Z,3.10
2024-05-09T07:38:33.073Z,3.50
2024-05-09T07:39:45.301Z,3.10
2024-05-09T07:40:57.591Z,3.50
2024-05-09T07:42:10.684Z,2.70
2024-05-09T07:43:22.816Z,3.37
2024-05-09T07:44:35.049Z,3.60
2024-05-09T07:45:52.779Z,2.77
2024-05-09T07:48:14.543Z,3.27
2024-05-09T07:53:49.306Z,3.10
2024-05-09T07:55:04.825Z,2.73
2024-05-09T07:56:17.749Z,3.17
2024-05-09T07:57:30.494Z,2.93
2024-05-09T07:58:46.264Z,2.97
2024-05-09T07:59:58.403Z,3.70
2024-05-09T08:01:10.804Z,3.13
2024-05-09T08:02:23.264Z,3.80
2024-05-09T08:03:35.692Z,2.50
2024-05-09T08:04:48.204Z,2.60
2024-05-09T08:06:00.539Z,2.80
2024-05-09T08:07:12.730Z,2.73
2024-05-09T08:08:24.970Z,3.00
2024-05-09T08:09:38.676Z,2.60
2024-05-09T08:10:51.550Z,3.17
2024-05-09T08:12:03.818Z,2.67
2024-05-09T08:13:16.079Z,2.60
2024-05-09T08:14:28.393Z,2.23
2024-05-09T08:15:40.680Z,2.60
2024-05-09T08:16:52.974Z,2.17
2024-05-09T08:18:09.209Z,2.43
2024-05-09T08:19:21.544Z,2.77
2024-05-09T08:20:35.355Z,2.17
2024-05-09T08:21:47.816Z,3.17
2024-05-09T08:23:00.011Z,2.53
2024-05-09T08:24:12.172Z,2.30
2024-05-09T08:25:24.397Z,2.23
2024-05-09T08:26:36.642Z,2.23
2024-05-09T08:27:48.891Z,2.63
2024-05-09T08:29:01.088Z,3.20
2024-05-09T08:30:21.733Z,2.90
2024-05-09T08:31:41.409Z,2.53
2024-05-09T08:32:53.711Z,2.27
2024-05-09T08:34:07.141Z,1.90
2024-05-09T08:35:19.397Z,2.67
2024-05-09T08:36:31.617Z,2.13
2024-05-09T08:37:43.962Z,2.87
2024-05-09T08:38:57.093Z,2.70
2024-05-09T08:40:16.956Z,2.43
2024-05-09T08:41:39.240Z,2.20
2024-05-09T08:42:56.190Z,2.00
2024-05-09T08:44:08.646Z,2.40
2024-05-09T08:45:21.238Z,2.90
2024-05-09T08:46:34.455Z,2.67
2024-05-09T08:47:47.175Z,2.40
2024-05-09T08:49:01.148Z,2.30
2024-05-09T08:50:28.492Z,2.87
2024-05-09T08:51:47.138Z,2.73
2024-05-09T08:52:59.385Z,2.13
2024-05-09T08:54:11.548Z,2.30
2024-05-09T08:55:25.539Z,2.30
2024-05-09T08:56:42.391Z,1.97
2024-05-09T08:57:55.207Z,2.47
2024-05-09T08:59:09.945Z,1.63
2024-05-09T09:00:33.386Z,1.60
2024-05-09T09:18:46.294Z,1.63
2024-05-09T09:20:00.976Z,2.07
2024-05-09T09:21:13.223Z,1.70
2024-05-09T09:22:25.390Z,1.63
2024-05-09T09:23:37.604Z,1.50
2024-05-09T09:24:49.765Z,2.13
2024-05-09T09:26:02.139Z,1.67
2024-05-09T09:27:14.819Z,1.90
2024-05-09T09:28:26.980Z,1.60
2024-05-09T09:29:40.386Z,2.27
2024-05-09T09:30:52.669Z,1.97
2024-05-09T09:32:05.702Z,1.83
2024-05-09T09:33:18.258Z,1.57
2024-05-09T09:34:31.954Z,1.67
2024-05-09T09:35:44.281Z,1.60
2024-05-09T09:36:59.190Z,1.80
2024-05-09T09:38:14.702Z,1.90
2024-05-09T09:39:30.911Z,2.20
2024-05-09T09:40:49.745Z,1.97
2024-05-09T09:42:03.858Z,2.07
2024-05-09T09:43:19.908Z,2.07
2024-05-09T09:44:34.173Z,2.17
2024-05-09T09:45:49.311Z,2.20
2024-05-09T09:47:03.066Z,1.50
2024-05-09T09:48:15.920Z,1.47
2024-05-09T09:49:30.592Z,1.77
2024-05-09T09:50:43.047Z,1.47
2024-05-09T09:51:55.494Z,1.27
2024-05-09T09:53:08.278Z,1.77
2024-05-09T09:54:21.829Z,1.40
2024-05-09T09:55:35.271Z,1.87
2024-05-09T09:56:48.824Z,1.60
2024-05-09T09:58:01.593Z,1.70
2024-05-09T09:59:15.095Z,1.67
2024-05-09T10:00:33.013Z,1.90
2024-05-09T10:01:47.108Z,1.40
2024-05-09T10:02:59.424Z,2.07
2024-05-09T10:04:27.522Z,2.20
2024-05-09T10:05:43.255Z,1.50
2024-05-09T10:07:01.242Z,1.40
2024-05-09T10:08:14.380Z,1.60
2024-05-09T10:09:26.876Z,2.33
2024-05-09T10:10:39.329Z,1.57
2024-05-09T10:11:59.667Z,1.27
2024-05-09T10:13:12.742Z,1.13
2024-05-09T10:14:25.087Z,1.50
2024-05-09T10:15:45.810Z,1.57
2024-05-09T10:17:05.680Z,1.73
2024-05-09T10:18:22.791Z,1.50
2024-05-09T10:19:35.557Z,1.50
2024-05-09T10:20:49.468Z,1.60
2024-05-09T10:22:06.007Z,1.90
2024-05-09T10:23:29.028Z,1.60
2024-05-09T10:24:50.971Z,1.43
2024-05-09T10:26:05.660Z,1.27
2024-05-09T10:27:28.205Z,1.20
2024-05-09T10:28:46.259Z,1.13
2024-05-09T10:30:00.528Z,1.93
2024-05-09T10:31:15.598Z,1.40
2024-05-09T10:32:29.375Z,1.70
2024-05-09T10:33:50.681Z,1.37
2024-05-09T10:35:06.968Z,1.30
2024-05-09T10:36:23.266Z,1.33
2024-05-09T10:37:36.027Z,1.30
2024-05-09T10:38:52.245Z,1.20
2024-05-09T10:40:11.918Z,1.70
2024-05-09T10:41:29.377Z,1.50
2024-05-09T10:42:42.041Z,1.30
2024-05-09T10:43:54.278Z,1.20
2024-05-09T10:45:06.958Z,1.40
2024-05-09T10:46:19.946Z,1.53
2024-05-09T10:47:32.720Z,1.40
2024-05-09T10:48:45.548Z,1.47
2024-05-09T10:49:57.933Z,1.30
2024-05-09T10:51:10.163Z,1.43
2024-05-09T10:52:22.994Z,1.47
2024-05-09T10:53:42.643Z,1.07
2024-05-09T10:54:55.364Z,1.70
2024-05-09T10:56:07.818Z,1.57
2024-05-09T10:57:20.777Z,1.30
2024-05-09T10:58:32.955Z,1.47
2024-05-09T10:59:45.802Z,1.50
2024-05-09T11:00:59.107Z,1.57
2024-05-09T11:02:12.340Z,1.50
2024-05-09T11:03:25.929Z,1.60
2024-05-09T11:04:41.772Z,1.27
2024-05-09T11:05:54.400Z,1.87
2024-05-09T11:07:17.677Z,1.97
2024-05-09T11:08:32.735Z,1.40
2024-05-09T11:09:45.905Z,1.47
2024-05-09T11:10:59.834Z,1.60
2024-05-09T11:12:12.469Z,1.43
2024-05-09T11:13:35.125Z,1.20
2024-05-09T11:14:54.301Z,1.73
2024-05-09T11:16:17.137Z,1.87
2024-05-09T11:17:37.660Z,1.30
2024-05-09T11:18:59.543Z,1.10
2024-05-09T11:20:17.107Z,1.30
2024-05-09T11:21:35.503Z,1.57
2024-05-09T11:22:47.731Z,1.50
2024-05-09T11:23:59.894Z,1.10
2024-05-09T11:25:12.145Z,1.30
2024-05-09T11:26:25.487Z,1.20
2024-05-09T11:27:40.989Z,1.03
2024-05-09T11:28:53.210Z,1.47
2024-05-09T11:30:09.114Z,1.87
2024-05-09T11:31:23.846Z,1.47
2024-05-09T11:32:38.202Z,1.70
2024-05-09T11:33:50.669Z,1.37
2024-05-09T11:35:02.974Z,1.40
2024-05-09T11:36:15.745Z,2.30
2024-05-09T11:37:28.072Z,1.33
2024-05-09T11:38:40.735Z,1.90
2024-05-09T11:39:54.055Z,1.27
2024-05-09T11:41:06.791Z,1.07
2024-05-09T11:42:20.825Z,1.20
2024-05-09T11:43:33.558Z,1.23
2024-05-09T11:44:45.861Z,1.20
2024-05-09T11:45:58.697Z,1.47
2024-05-09T11:47:11.182Z,1.00
2024-05-09T11:48:23.963Z,1.63
2024-05-09T11:49:36.359Z,2.83
2024-05-09T11:50:48.547Z,1.10
2024-05-09T11:52:00.884Z,1.73
2024-05-09T11:53:13.162Z,1.80
2024-05-09T11:54:25.319Z,1.73
2024-05-09T11:55:38.231Z,2.30
2024-05-09T11:56:51.786Z,2.70
2024-05-09T11:58:04.653Z,2.93
2024-05-09T11:59:16.876Z,2.77
2024-05-09T12:00:36.195Z,2.27
2024-05-09T12:01:49.769Z,2.23
2024-05-09T12:03:04.931Z,2.30
2024-05-09T12:04:18.125Z,1.87
2024-05-09T12:05:30.589Z,1.40
2024-05-09T12:06:43.027Z,1.70
2024-05-09T12:07:56.461Z,1.53
2024-05-09T12:09:08.997Z,1.73
2024-05-09T12:10:26.073Z,1.77
2024-05-09T12:11:44.443Z,1.37
2024-05-09T12:12:56.668Z,1.43
2024-05-09T12:14:08.864Z,1.57
2024-05-09T12:15:21.074Z,1.33
2024-05-09T12:16:33.429Z,1.00
2024-05-09T12:17:47.783Z,1.00
2024-05-09T12:19:01.968Z,1.80
2024-05-09T12:20:21.484Z,1.27
2024-05-09T12:21:40.872Z,0.90
2024-05-09T12:22:53.056Z,1.40
2024-05-09T12:24:05.259Z,1.13
2024-05-09T12:25:17.646Z,1.37
2024-05-09T12:26:29.894Z,1.27
2024-05-09T12:27:42.128Z,1.13
2024-05-09T12:28:54.474Z,1.07
2024-05-09T12:30:11.262Z,1.10
2024-05-09T12:31:23.714Z,1.57
2024-05-09T12:32:35.945Z,1.33
2024-05-09T12:33:48.283Z,1.40
2024-05-09T12:35:00.564Z,1.30
2024-05-09T12:36:12.721Z,1.33
2024-05-09T12:37:25.008Z,1.50
2024-05-09T12:38:37.199Z,1.30
2024-05-09T12:39:49.659Z,2.33
2024-05-09T12:41:02.014Z,1.90
2024-05-09T12:42:26.042Z,1.57
2024-05-09T12:43:39.732Z,1.57
2024-05-09T12:44:51.888Z,1.93
2024-05-09T12:46:04.227Z,1.47
2024-05-09T12:47:16.683Z,1.40
2024-05-09T12:48:29.234Z,1.20
2024-05-09T12:49:41.634Z,2.67
2024-05-09T12:50:55.091Z,1.20
2024-05-09T12:52:07.580Z,1.20
2024-05-09T12:53:19.814Z,1.03
2024-05-09T12:54:33.682Z,1.00
2024-05-09T12:55:53.564Z,1.40
2024-05-09T12:57:09.398Z,1.83
2024-05-09T12:58:24.907Z,1.50
2024-05-09T12:59:37.148Z,1.13
2024-05-09T13:00:49.566Z,1.33
2024-05-09T13:02:02.001Z,1.60
2024-05-09T13:03:14.436Z,0.90
2024-05-09T13:04:27.010Z,1.50
2024-05-09T13:05:41.513Z,1.33
2024-05-09T13:06:54.071Z,1.73
2024-05-09T13:08:07.724Z,1.43
2024-05-09T13:09:19.890Z,1.33
2024-05-09T13:10:33.418Z,2.00
2024-05-09T13:11:45.893Z,1.77
2024-05-09T13:12:58.154Z,2.20
2024-05-09T13:14:10.429Z,2.87
2024-05-09T13:15:22.574Z,2.53
2024-05-09T13:16:34.952Z,2.47
2024-05-09T13:17:47.385Z,2.40
2024-05-09T13:18:59.588Z,2.60
2024-05-09T13:20:18.943Z,2.07
2024-05-09T13:21:38.422Z,2.93
2024-05-09T13:22:50.610Z,2.63
2024-05-09T13:24:02.730Z,2.60
2024-05-09T13:25:15.380Z,2.07
2024-05-09T13:26:27.610Z,1.93
2024-05-09T13:27:39.803Z,2.57
2024-05-09T13:28:51.988Z,2.50
2024-05-09T13:30:06.315Z,1.87
2024-05-09T13:31:20.031Z,2.03
2024-05-09T13:32:32.520Z,2.47
2024-05-09T13:33:45.078Z,2.07
2024-05-09T13:34:57.575Z,2.10
2024-05-09T13:36:09.843Z,2.53
2024-05-09T13:37:21.981Z,1.80
2024-05-09T13:38:34.126Z,2.00
2024-05-09T13:39:46.379Z,1.80
2024-05-09T13:40:58.666Z,2.30
2024-05-09T13:42:10.838Z,1.80
2024-05-09T13:43:23.350Z,1.90
2024-05-09T13:44:35.602Z,2.73
2024-05-09T13:45:48.170Z,1.70
2024-05-09T13:47:00.461Z,2.03
2024-05-09T13:48:13.089Z,1.80
2024-05-09T13:49:25.640Z,1.83
2024-05-09T13:50:38.000Z,1.60
2024-05-09T13:51:50.183Z,1.70
2024-05-09T13:53:02.632Z,1.53
2024-05-09T13:54:15.705Z,1.10
2024-05-09T13:55:28.996Z,1.43
2024-05-09T13:56:41.862Z,1.70
2024-05-09T13:57:54.285Z,1.80
2024-05-09T13:59:06.686Z,1.90
2024-05-09T14:00:31.705Z,1.90
2024-05-09T14:01:51.035Z,1.80
2024-05-09T14:03:03.314Z,1.70
2024-05-09T14:04:16.068Z,1.70
2024-05-09T14:05:28.394Z,1.47
2024-05-09T14:06:42.096Z,1.33
2024-05-09T14:07:54.284Z,2.73
2024-05-09T14:09:06.521Z,2.57
2024-05-09T14:10:23.435Z,2.07
2024-05-09T14:11:41.082Z,1.60
2024-05-09T14:12:53.298Z,2.50
2024-05-09T14:14:05.643Z,2.63
2024-05-09T14:15:17.816Z,1.97
2024-05-09T14:16:33.645Z,1.63
2024-05-09T14:17:46.768Z,1.37
2024-05-09T14:18:59.493Z,3.03
2024-05-09T14:20:14.198Z,2.73
2024-05-09T14:21:28.954Z,3.10
2024-05-09T14:22:41.288Z,3.03
2024-05-09T14:23:54.475Z,2.80
2024-05-09T14:25:07.519Z,1.60
2024-05-09T14:26:19.755Z,1.77
2024-05-09T14:27:32.511Z,2.23
2024-05-09T14:28:44.711Z,1.80
2024-05-09T14:29:56.834Z,2.20
2024-05-09T14:31:09.033Z,1.83
2024-05-09T14:32:21.285Z,2.00
2024-05-09T14:33:33.714Z,1.47
2024-05-09T14:34:46.161Z,2.20
2024-05-09T14:35:58.476Z,1.97
2024-05-09T14:37:10.753Z,2.13
2024-05-09T14:38:24.284Z,1.73
2024-05-09T14:39:36.442Z,2.03
2024-05-09T14:40:48.780Z,1.87
2024-05-09T14:42:01.094Z,1.77
2024-05-09T14:43:15.273Z,1.73
2024-05-09T14:44:28.015Z,2.50
2024-05-09T14:45:40.600Z,2.50
2024-05-09T14:46:52.996Z,2.87
2024-05-09T14:48:06.018Z,1.97
2024-05-09T14:49:18.427Z,1.97
2024-05-09T14:50:36.165Z,1.97
2024-05-09T14:51:51.213Z,1.67
2024-05-09T14:53:06.771Z,1.33
2024-05-09T14:54:19.524Z,1.67
2024-05-09T14:55:31.981Z,1.87
2024-05-09T14:56:44.181Z,1.53
2024-05-09T14:57:56.567Z,1.77
2024-05-09T14:59:09.304Z,1.57
2024-05-09T15:00:28.626Z,1.30
2024-05-09T15:01:45.167Z,2.90
2024-05-09T15:02:57.573Z,1.90
2024-05-09T15:04:09.833Z,1.63
2024-05-09T15:05:22.144Z,1.27
2024-05-09T15:06:34.437Z,1.73
2024-05-09T15:07:46.708Z,1.50
2024-05-09T15:08:59.275Z,1.30
2024-05-09T15:10:20.328Z,1.37
2024-05-09T15:11:36.328Z,1.77
2024-05-09T15:12:48.517Z,1.73
2024-05-09T15:14:00.680Z,1.90
2024-05-09T15:15:12.829Z,1.83
2024-05-09T15:16:26.733Z,2.00
2024-05-09T15:17:39.907Z,2.07
2024-05-09T15:18:52.298Z,1.77
2024-05-09T15:20:09.189Z,1.90
2024-05-09T15:21:21.797Z,2.17
2024-05-09T15:22:34.046Z,1.60
2024-05-09T15:23:46.210Z,2.27
2024-05-09T15:24:58.441Z,1.90
2024-05-09T15:26:11.131Z,2.10
2024-05-09T15:27:23.304Z,2.00
2024-05-09T15:28:35.539Z,2.20
2024-05-09T15:29:47.729Z,2.70
2024-05-09T15:31:00.560Z,2.50
2024-05-09T15:32:14.693Z,2.30
2024-05-09T15:33:28.797Z,2.87
2024-05-09T15:34:41.502Z,2.43
2024-05-09T15:35:53.919Z,2.53
2024-05-09T15:37:06.134Z,2.57
2024-05-09T15:38:18.826Z,3.00
2024-05-09T15:39:31.068Z,3.23
2024-05-09T15:40:43.316Z,3.20
2024-05-09T15:41:56.528Z,2.93
2024-05-09T15:43:10.952Z,3.10
2024-05-09T15:44:25.959Z,3.20
2024-05-09T15:45:38.258Z,2.43
2024-05-09T15:46:50.675Z,2.40
2024-05-09T15:48:03.772Z,3.43
2024-05-09T15:49:16.450Z,2.23
2024-05-09T15:50:36.634Z,2.93
2024-05-09T15:51:52.248Z,2.73
2024-05-09T15:53:04.536Z,2.63
2024-05-09T15:54:16.720Z,1.73
2024-05-09T15:55:33.996Z,2.53
2024-05-09T15:56:49.049Z,2.40
2024-05-09T15:58:02.655Z,2.80
2024-05-09T15:59:18.666Z,2.87
2024-05-09T16:00:38.388Z,2.83
2024-05-09T16:01:54.554Z,3.43
2024-05-09T16:03:06.911Z,2.60
2024-05-09T16:04:19.515Z,2.63
2024-05-09T16:05:31.879Z,2.63
2024-05-09T16:06:47.965Z,2.63
2024-05-09T16:08:00.272Z,2.63
2024-05-09T16:09:12.482Z,2.70
2024-05-09T16:10:30.091Z,2.27
2024-05-09T16:11:44.992Z,2.27
2024-05-09T16:12:57.279Z,2.60
2024-05-09T16:14:09.543Z,3.90
2024-05-09T16:15:21.768Z,3.87
2024-05-09T16:16:34.037Z,5.50
2024-05-09T16:17:46.262Z,6.27
2024-05-09T16:18:58.800Z,4.10
2024-05-09T16:20:15.184Z,2.23
2024-05-09T16:21:30.696Z,1.90
2024-05-09T16:22:44.053Z,1.90
2024-05-09T16:23:56.236Z,2.10
2024-05-09T16:25:08.829Z,2.40
2024-05-09T16:26:21.075Z,2.43
2024-05-09T16:27:33.367Z,2.33
2024-05-09T16:28:45.545Z,2.67
2024-05-09T16:29:58.312Z,2.50
2024-05-09T16:31:10.492Z,2.47
2024-05-09T16:32:22.806Z,2.00
2024-05-09T16:33:35.191Z,1.80
2024-05-09T16:34:49.950Z,2.10
2024-05-09T16:36:02.401Z,2.00
2024-05-09T16:37:14.727Z,1.97
2024-05-09T16:38:26.956Z,1.63
2024-05-09T16:39:39.225Z,1.90
2024-05-09T16:40:51.875Z,1.90
2024-05-09T16:42:04.400Z,2.33
2024-05-09T16:43:16.736Z,1.73